Time;durP1;ratioP1;P1;durP2;ratioP2;P2;SDS_P1;SDS_P2;PMS_P1;PMS_P2;Temp;Humidity;BMP_temperature;BMP_pressure;BME280_temperature;BME280_humidity;BME280_pressure;Samples;Min_cycle;Max_cycle;Signal;HPM_P1;HPM_P2
2022/07/24 00:01:40;;;;;;;3.30;3.00;;;20.10;61.40;;;22.76;46.93;101958.03;5112710;28;20632;-59
2022/07/24 00:04:09;;;;;;;3.57;3.20;;;20.10;61.80;;;22.79;47.15;101955.75;5112752;28;20187;-58
2022/07/24 00:06:37;;;;;;;3.73;2.90;;;20.10;61.60;;;22.78;46.91;101962.16;5111255;28;20303;-60
2022/07/24 00:09:06;;;;;;;3.10;2.80;;;20.10;61.60;;;22.79;47.14;101949.56;5113291;28;20211;-60
2022/07/24 00:11:35;;;;;;;3.73;3.00;;;20.10;61.60;;;22.76;46.85;101952.69;5112746;28;20551;-59
2022/07/24 00:14:03;;;;;;;3.17;2.60;;;20.10;61.90;;;22.74;47.27;101944.84;5113028;28;20284;-57
2022/07/24 00:16:36;;;;;;;5.07;2.77;;;20.10;61.60;;;22.72;46.98;101944.25;5113645;28;20184;-60
2022/07/24 00:19:04;;;;;;;5.03;3.17;;;20.10;61.60;;;22.67;47.25;101944.13;5113176;28;20188;-60
2022/07/24 00:21:33;;;;;;;3.10;2.90;;;20.10;61.70;;;22.58;47.26;101940.03;5113083;28;20291;-60
2022/07/24 00:24:01;;;;;;;3.60;2.90;;;20.00;61.50;;;22.53;47.39;101942.59;5111340;28;20211;-61
2022/07/24 00:26:29;;;;;;;2.83;2.57;;;20.00;61.80;;;22.51;47.87;101938.50;5113022;28;20226;-59
2022/07/24 00:28:56;;;;;;;2.87;2.67;;;19.90;62.10;;;22.52;47.94;101935.56;5112680;28;20226;-60
2022/07/24 00:31:24;;;;;;;4.10;2.67;;;19.90;62.40;;;22.56;47.65;101931.41;5114398;28;20207;-60
2022/07/24 00:33:51;;;;;;;3.97;3.43;;;19.90;62.50;;;22.60;47.65;101935.28;5116942;28;20192;-60
2022/07/24 00:36:20;;;;;;;3.03;2.67;;;19.90;62.40;;;22.61;47.87;101938.81;5116861;28;20215;-60
2022/07/24 00:38:48;;;;;;;3.17;2.87;;;19.90;62.40;;;22.61;47.56;101931.56;5113983;27;20204;-59
2022/07/24 00:41:16;;;;;;;3.60;3.30;;;20.00;62.30;;;22.59;47.60;101930.13;5116230;28;20230;-60
2022/07/24 00:44:04;;;;;;;3.40;3.10;;;20.00;62.20;;;22.48;47.73;101934.38;5116907;27;20192;-58
2022/07/24 00:46:33;;;;;;;4.80;2.50;;;19.90;62.20;;;22.47;47.92;101926.53;5116647;28;20218;-60
2022/07/24 00:49:00;;;;;;;4.57;3.00;;;19.90;62.40;;;22.47;47.97;101927.38;5116419;28;20195;-60
2022/07/24 00:51:29;;;;;;;2.87;2.50;;;19.80;62.70;;;22.49;48.02;101929.84;5115983;27;20229;-59
2022/07/24 00:53:57;;;;;;;5.90;2.87;;;19.80;63.00;;;22.54;47.63;101933.47;5116404;28;20664;-58
2022/07/24 00:56:25;;;;;;;3.13;2.87;;;19.90;63.00;;;22.53;47.62;101928.34;5114308;28;20196;-57
2022/07/24 00:58:52;;;;;;;3.80;3.20;;;19.90;62.60;;;22.48;47.67;101926.34;5116761;27;20197;-60
2022/07/24 01:01:20;;;;;;;4.20;3.60;;;19.90;62.80;;;22.47;48.16;101921.19;5116567;28;20566;-59
2022/07/24 01:03:48;;;;;;;4.00;3.17;;;19.90;63.80;;;22.49;48.21;101924.47;5116497;27;20191;-60
2022/07/24 01:06:15;;;;;;;5.83;4.33;;;19.80;63.00;;;22.46;48.01;101920.38;5116556;28;20214;-60
2022/07/24 01:08:43;;;;;;;3.93;3.30;;;19.90;62.90;;;22.37;48.39;101929.75;5116691;28;20669;-58
2022/07/24 01:11:12;;;;;;;4.57;3.50;;;19.80;63.00;;;22.23;48.60;101930.94;5113137;28;20212;-60
2022/07/24 01:13:41;;;;;;;5.13;4.63;;;19.70;63.10;;;22.07;49.04;101931.50;5095988;28;20276;-59
2022/07/24 01:16:09;;;;;;;4.47;4.10;;;19.60;63.70;;;21.91;49.31;101927.53;5095670;28;20185;-60
2022/07/24 01:18:37;;;;;;;5.43;3.57;;;19.50;64.00;;;21.84;49.59;101925.91;5095248;28;20188;-60
2022/07/24 01:21:07;;;;;;;4.07;3.67;;;19.40;64.10;;;21.81;49.73;101924.50;5094529;28;20184;-60
2022/07/24 01:23:36;;;;;;;3.40;2.90;;;19.40;64.80;;;21.79;49.86;101923.91;5095628;28;20188;-59
2022/07/24 01:26:06;;;;;;;3.83;3.53;;;19.30;64.80;;;21.77;49.91;101925.16;5095228;28;20205;-61
2022/07/24 01:28:35;;;;;;;5.10;4.60;;;19.30;65.10;;;21.75;50.02;101921.88;5096367;28;20200;-59
2022/07/24 01:31:03;;;;;;;4.30;3.90;;;19.20;65.10;;;21.72;50.00;101912.41;5095258;28;20189;-59
2022/07/24 01:33:31;;;;;;;4.83;3.70;;;19.20;65.40;;;21.75;50.20;101917.31;5095224;28;20274;-59
2022/07/24 01:35:58;;;;;;;5.83;5.10;;;19.20;65.60;;;21.73;50.13;101913.25;5095725;28;20284;-58
2022/07/24 01:38:27;;;;;;;3.77;3.47;;;19.10;65.50;;;21.68;49.84;101918.44;5093991;28;20184;-57
2022/07/24 01:40:55;;;;;;;3.40;3.10;;;19.10;65.60;;;21.67;50.15;101912.25;5094570;28;20192;-59
2022/07/24 01:43:22;;;;;;;5.50;3.93;;;19.10;66.30;;;21.72;50.53;101906.22;5094743;28;20189;-58
2022/07/24 01:45:49;;;;;;;5.43;4.93;;;19.10;66.10;;;21.76;49.92;101907.41;5096511;28;20243;-59
2022/07/24 01:48:17;;;;;;;4.83;4.10;;;19.20;66.00;;;21.73;50.49;101910.56;5095534;28;20242;-58
2022/07/24 01:50:44;;;;;;;5.90;4.10;;;19.10;65.80;;;21.67;50.05;101914.09;5095418;28;20189;-60
2022/07/24 01:53:12;;;;;;;4.57;3.83;;;19.10;65.60;;;21.61;50.40;101905.06;5095369;28;20661;-59
2022/07/24 01:55:40;;;;;;;4.90;3.43;;;19.10;66.00;;;21.62;50.41;101905.88;5095289;28;20207;-60
2022/07/24 01:58:08;;;;;;;8.00;4.20;;;19.00;66.20;;;21.67;50.36;101914.09;5095254;28;20720;-58
2022/07/24 02:00:35;;;;;;;5.23;4.33;;;19.10;66.60;;;21.69;50.69;101901.28;5096016;28;20189;-59
2022/07/24 02:03:03;;;;;;;6.47;3.93;;;19.10;66.40;;;21.68;50.80;101900.47;5094900;28;20235;-59
2022/07/24 02:05:31;;;;;;;5.00;4.60;;;19.10;66.80;;;21.70;50.93;101902.94;5094947;28;20223;-57
2022/07/24 02:08:00;;;;;;;5.07;4.50;;;19.10;66.60;;;21.67;50.46;101898.84;5095120;28;20649;-60
2022/07/24 02:10:29;;;;;;;5.73;4.63;;;19.10;66.40;;;21.58;50.79;101900.94;5094741;28;20191;-59
2022/07/24 02:12:58;;;;;;;5.40;4.90;;;19.00;66.50;;;21.51;50.83;101899.38;5095013;28;20227;-59
2022/07/24 02:15:26;;;;;;;4.73;3.90;;;19.00;66.70;;;21.50;51.39;101897.72;5095038;28;20208;-59
2022/07/24 02:17:57;;;;;;;3.77;3.40;;;19.00;67.20;;;21.52;50.95;101901.00;5104709;28;20199;-59
2022/07/24 02:20:26;;;;;;;4.23;3.83;;;19.00;67.40;;;21.52;50.78;101893.81;5114909;28;20194;-60
2022/07/24 02:22:54;;;;;;;12.00;4.50;;;19.00;67.10;;;21.58;51.32;101900.94;5114853;28;20676;-59
2022/07/24 02:25:21;;;;;;;5.37;4.50;;;19.00;67.40;;;21.58;50.88;101890.22;5114799;28;20188;-58
2022/07/24 02:27:49;;;;;;;7.37;5.43;;;19.00;67.10;;;21.59;50.81;101885.69;5114597;28;20192;-59
2022/07/24 02:30:22;;;;;;;4.37;3.97;;;19.00;66.90;;;21.51;51.06;101904.75;5115072;28;20195;-60
2022/07/24 02:32:49;;;;;;;5.27;4.77;;;19.00;66.90;;;21.41;51.17;101899.03;5114969;28;20215;-60
2022/07/24 02:35:17;;;;;;;5.13;4.50;;;18.90;66.90;;;21.31;51.02;101894.16;5112970;28;20190;-58
2022/07/24 02:37:46;;;;;;;4.83;4.33;;;18.80;67.00;;;21.18;51.40;101893.44;5115176;28;20183;-59
2022/07/24 02:40:14;;;;;;;5.67;3.73;;;18.70;67.30;;;21.12;51.68;101894.28;5115134;28;20192;-60
2022/07/24 02:42:42;;;;;;;5.03;4.53;;;18.70;67.50;;;21.04;52.26;101898.00;5114183;27;20204;-59
2022/07/24 02:45:11;;;;;;;6.30;4.80;;;18.60;67.90;;;20.93;52.33;101904.03;5114647;28;20237;-59
2022/07/24 02:47:49;;;;;;;5.60;4.73;;;18.50;68.30;;;20.79;52.19;101918.53;5114525;28;20220;-59
2022/07/24 02:50:18;;;;;;;4.20;3.80;;;18.40;68.30;;;20.71;52.19;101911.56;5113145;28;20279;-59
2022/07/24 02:52:46;;;;;;;4.93;3.50;;;18.40;68.40;;;20.67;52.59;101906.84;5114439;28;20265;-58
2022/07/24 02:55:14;;;;;;;3.60;3.27;;;18.30;68.40;;;20.71;52.82;101906.19;5114415;28;20188;-59
2022/07/24 02:57:42;;;;;;;4.00;3.60;;;18.30;68.90;;;20.81;52.67;101903.06;5114689;28;20184;-58
2022/07/24 03:00:14;;;;;;;4.33;3.87;;;18.20;69.80;;;20.90;52.39;101901.78;5114614;28;20196;-57
2022/07/24 03:02:42;;;;;;;4.67;3.77;;;18.30;69.00;;;20.96;52.29;101892.91;5114189;28;20203;-58
2022/07/24 03:05:11;;;;;;;5.03;3.83;;;18.30;68.40;;;20.98;51.56;101898.88;5114545;28;20203;-56
2022/07/24 03:07:40;;;;;;;4.90;4.50;;;18.40;68.30;;;20.96;51.88;101900.94;5099975;28;20223;-58
2022/07/24 03:10:10;;;;;;;5.10;3.47;;;18.40;68.10;;;20.90;52.19;101891.06;5093990;28;20679;-60
2022/07/24 03:12:38;;;;;;;4.17;3.77;;;18.40;68.10;;;20.88;52.36;101891.31;5093381;28;20576;-58
2022/07/24 03:15:07;;;;;;;4.80;3.90;;;18.40;68.20;;;20.83;52.64;101892.97;5094137;28;20185;-59
2022/07/24 03:17:34;;;;;;;4.93;3.53;;;18.30;68.50;;;20.76;52.28;101889.50;5094007;28;20259;-60
2022/07/24 03:20:03;;;;;;;3.80;3.50;;;18.30;68.50;;;20.74;52.22;101883.53;5093977;28;20192;-60
2022/07/24 03:22:32;;;;;;;4.83;4.00;;;18.30;68.70;;;20.73;52.46;101892.59;5094722;28;20210;-60
2022/07/24 03:25:00;;;;;;;4.53;4.13;;;18.20;69.20;;;20.70;52.58;101895.72;5093192;28;20192;-60
2022/07/24 03:27:30;;;;;;;5.40;4.40;;;18.20;69.30;;;20.65;52.94;101891.00;5093666;28;20774;-58
2022/07/24 03:29:57;;;;;;;5.17;4.50;;;18.20;69.70;;;20.65;53.12;101892.84;5093750;28;20197;-58
2022/07/24 03:32:24;;;;;;;5.20;4.30;;;18.10;69.60;;;20.61;53.74;101888.97;5093070;28;20223;-57
2022/07/24 03:34:51;;;;;;;4.17;3.77;;;18.10;70.00;;;20.57;53.54;101893.09;5104527;28;20195;-58
2022/07/24 03:37:19;;;;;;;5.17;4.67;;;18.10;70.30;;;20.49;53.98;101894.13;5113550;28;20694;-58
2022/07/24 03:39:48;;;;;;;4.53;4.13;;;18.10;70.40;;;20.46;53.58;101893.75;5113980;28;20196;-59
2022/07/24 03:42:15;;;;;;;4.33;3.97;;;18.00;70.40;;;20.47;53.56;101890.03;5113671;28;20242;-57
2022/07/24 03:44:43;;;;;;;4.63;4.23;;;18.00;70.50;;;20.51;53.98;101886.75;5113784;28;20556;-58
2022/07/24 03:47:10;;;;;;;6.10;4.50;;;18.00;70.60;;;20.60;54.08;101888.16;5113553;28;20219;-57
2022/07/24 03:49:37;;;;;;;6.33;4.87;;;18.00;70.80;;;20.71;53.42;101882.13;5094881;28;20204;-59
2022/07/24 03:52:05;;;;;;;4.17;3.83;;;18.10;70.70;;;20.83;52.89;101890.28;5091719;28;20225;-59
2022/07/24 03:54:32;;;;;;;5.50;4.67;;;18.10;70.30;;;20.85;53.11;101882.88;5093318;28;20557;-59
2022/07/24 03:57:01;;;;;;;5.63;4.17;;;18.20;70.00;;;20.87;52.54;101886.16;5093114;28;20189;-58
2022/07/24 03:59:29;;;;;;;4.77;4.13;;;18.30;69.90;;;20.85;52.83;101882.88;5093426;28;20266;-59
2022/07/24 04:01:56;;;;;;;4.37;4.07;;;18.30;69.80;;;20.83;53.14;101888.44;5093565;28;20211;-60
2022/07/24 04:04:23;;;;;;;4.93;4.50;;;18.30;69.80;;;20.76;52.76;101889.50;5094928;28;20189;-59
2022/07/24 04:06:51;;;;;;;6.07;5.03;;;18.30;69.80;;;20.71;52.82;101892.81;5093822;28;20270;-58
2022/07/24 04:09:18;;;;;;;4.40;4.00;;;18.20;69.70;;;20.69;53.52;101894.88;5093792;28;20633;-59
2022/07/24 04:11:58;;;;;;;4.53;4.20;;;18.20;70.00;;;20.56;53.47;101894.94;5093493;28;20687;-59
2022/07/24 04:14:27;;;;;;;5.23;4.40;;;18.10;70.10;;;20.50;53.84;101900.31;5093569;28;20184;-59
2022/07/24 04:16:55;;;;;;;5.33;4.37;;;18.10;70.30;;;20.47;54.04;101895.38;5093649;28;20472;-59
2022/07/24 04:19:22;;;;;;;4.10;3.67;;;18.00;70.30;;;20.52;53.58;101890.22;5093530;28;20189;-59
2022/07/24 04:21:49;;;;;;;4.33;3.70;;;18.00;70.50;;;20.57;53.80;101887.72;5104902;28;20215;-59
2022/07/24 04:24:17;;;;;;;3.77;3.47;;;18.00;71.40;;;20.59;53.57;101885.66;5113785;28;20615;-58
2022/07/24 04:26:44;;;;;;;3.90;3.63;;;18.00;70.70;;;20.59;53.49;101882.97;5113607;28;20203;-59
2022/07/24 04:29:11;;;;;;;4.83;3.83;;;18.00;70.80;;;20.61;53.52;101886.28;5113840;28;20203;-58
2022/07/24 04:31:40;;;;;;;4.83;4.33;;;18.00;70.80;;;20.66;53.86;101881.09;5113032;28;20215;-58
2022/07/24 04:34:07;;;;;;;4.70;4.00;;;18.00;70.90;;;20.65;53.51;101887.50;5113585;28;20361;-59
2022/07/24 04:36:35;;;;;;;3.83;3.53;;;18.00;71.10;;;20.66;53.74;101883.78;5113756;28;20198;-57
2022/07/24 04:39:03;;;;;;;3.63;3.33;;;18.10;70.90;;;20.72;53.26;101882.94;5094311;28;20192;-59
2022/07/24 04:41:35;;;;;;;7.20;3.80;;;18.10;71.00;;;20.73;53.86;101880.03;5093026;28;20219;-59
2022/07/24 04:44:03;;;;;;;4.67;3.53;;;18.10;71.10;;;20.76;53.35;101876.13;5093675;28;20199;-57
2022/07/24 04:46:30;;;;;;;4.07;3.73;;;18.10;71.00;;;20.79;53.54;101867.66;5093404;28;20208;-59
2022/07/24 04:48:59;;;;;;;4.07;3.67;;;18.20;71.00;;;20.85;53.16;101872.16;5093351;28;20246;-60
2022/07/24 04:51:29;;;;;;;3.63;3.30;;;18.20;70.90;;;20.92;53.33;101867.59;5092804;28;20213;-59
2022/07/24 04:53:56;;;;;;;4.90;3.00;;;18.30;70.90;;;21.04;52.81;101876.56;5098761;28;20211;-58
2022/07/24 04:56:24;;;;;;;3.17;2.90;;;18.30;70.80;;;21.16;53.21;101877.56;5113654;28;20223;-60
2022/07/24 04:58:51;;;;;;;2.73;2.53;;;18.40;70.80;;;21.29;52.51;101874.81;5113395;28;20188;-59
2022/07/24 05:01:18;;;;;;;4.50;3.17;;;18.50;70.60;;;21.44;52.49;101869.94;5113023;28;20204;-59
2022/07/24 05:03:46;;;;;;;4.07;3.40;;;18.60;70.20;;;21.53;52.36;101865.97;5113232;28;20194;-59
2022/07/24 05:06:15;;;;;;;4.83;3.23;;;18.80;69.80;;;21.57;52.12;101861.81;5113870;28;20266;-59
2022/07/24 05:08:42;;;;;;;3.40;3.10;;;18.80;69.40;;;21.64;51.81;101863.59;5113904;28;20196;-59
2022/07/24 05:11:09;;;;;;;5.13;3.67;;;18.90;69.20;;;21.66;51.51;101858.84;5109855;28;20196;-59
2022/07/24 05:13:37;;;;;;;5.07;3.33;;;19.00;68.90;;;21.60;51.31;101852.50;5112375;28;20188;-58
2022/07/24 05:16:05;;;;;;;3.80;2.70;;;19.00;68.70;;;21.57;51.63;101851.09;5113549;28;20188;-62
2022/07/24 05:18:32;;;;;;;3.23;2.90;;;19.00;68.70;;;21.61;51.64;101861.38;5117038;28;20705;-59
2022/07/24 05:21:00;;;;;;;3.10;2.80;;;19.10;68.70;;;21.64;51.46;101855.56;5116780;27;20539;-59
2022/07/24 05:23:29;;;;;;;3.43;2.53;;;19.10;68.60;;;21.68;51.25;101862.16;5117517;28;20188;-59
2022/07/24 05:25:56;;;;;;;3.13;2.83;;;19.10;68.60;;;21.74;51.45;101859.41;5116726;28;20199;-57
2022/07/24 05:28:23;;;;;;;4.33;2.70;;;19.10;68.50;;;21.79;51.05;101853.38;5099880;28;20212;-56
2022/07/24 05:30:51;;;;;;;3.90;2.77;;;19.20;68.50;;;21.86;51.21;101848.78;5096118;28;20215;-61
2022/07/24 05:33:18;;;;;;;2.60;2.40;;;19.20;68.30;;;21.89;51.03;101848.34;5096306;28;20223;-57
2022/07/24 05:35:47;;;;;;;3.53;3.10;;;19.20;68.20;;;21.94;51.08;101846.63;5096618;28;20196;-58
2022/07/24 05:38:15;;;;;;;4.47;2.87;;;19.30;68.20;;;21.98;51.03;101836.28;5096236;28;20189;-58
2022/07/24 05:40:44;;;;;;;3.43;3.13;;;19.30;67.90;;;21.95;50.70;101831.38;5096018;28;20185;-59
2022/07/24 05:43:16;;;;;;;4.00;3.07;;;19.40;67.80;;;21.97;50.94;101842.69;5100328;28;20238;-59
2022/07/24 05:45:44;;;;;;;3.00;2.77;;;19.40;67.80;;;22.03;50.83;101836.44;5116205;28;20270;-58
2022/07/24 05:48:11;;;;;;;3.30;2.63;;;19.40;67.50;;;22.06;50.56;101833.34;5116036;28;20215;-61
2022/07/24 05:50:38;;;;;;;3.47;2.63;;;19.50;67.60;;;22.10;50.41;101835.34;5116032;28;20203;-58
2022/07/24 05:53:06;;;;;;;3.73;2.37;;;19.50;67.40;;;22.15;50.58;101837.34;5116231;28;20257;-58
2022/07/24 05:55:33;;;;;;;3.00;2.70;;;19.50;68.10;;;22.18;50.81;101835.03;5116384;28;20187;-59
2022/07/24 05:58:03;;;;;;;3.40;3.13;;;19.60;67.10;;;22.22;50.81;101832.72;5116321;28;20191;-59
2022/07/24 06:00:31;;;;;;;2.93;2.70;;;19.60;67.20;;;22.26;50.48;101839.28;5101520;28;20180;-58
2022/07/24 06:02:58;;;;;;;2.93;2.63;;;19.70;67.20;;;22.30;50.51;101829.72;5095699;28;20219;-58
2022/07/24 06:05:26;;;;;;;3.07;2.87;;;19.70;67.00;;;22.34;50.26;101828.25;5095860;28;20200;-57
2022/07/24 06:07:53;;;;;;;4.17;2.60;;;19.70;66.80;;;22.39;49.81;101828.41;5095656;28;20586;-58
2022/07/24 06:10:20;;;;;;;3.53;3.03;;;19.80;66.80;;;22.43;50.22;101826.91;5095983;28;20501;-60
2022/07/24 06:12:52;;;;;;;5.23;3.03;;;19.80;66.70;;;22.46;50.37;101831.81;5095567;28;20215;-61
2022/07/24 06:15:21;;;;;;;2.80;2.60;;;19.90;66.80;;;22.51;49.91;101829.25;5094954;28;20315;-58
2022/07/24 06:17:49;;;;;;;3.43;2.60;;;19.90;66.70;;;22.53;49.90;101834.41;5096421;28;20564;-58
2022/07/24 06:20:16;;;;;;;3.30;3.00;;;19.90;66.70;;;22.56;49.93;101832.06;5095618;28;20188;-57
2022/07/24 06:22:44;;;;;;;2.97;2.80;;;20.00;66.60;;;22.55;49.85;101838.50;5095733;28;20541;-58
2022/07/24 06:25:16;;;;;;;3.73;2.50;;;20.00;66.30;;;22.59;50.10;101831.63;5095330;28;20633;-60
2022/07/24 06:27:47;;;;;;;5.30;2.70;;;20.10;66.40;;;22.65;49.88;101828.09;5094727;28;20201;-60
2022/07/24 06:30:17;;;;;;;3.37;2.90;;;20.10;66.20;;;22.59;49.69;101823.56;5094437;28;20188;-60
2022/07/24 06:32:46;;;;;;;2.57;2.37;;;20.10;66.00;;;22.74;49.67;101817.84;5095938;28;20212;-60
2022/07/24 06:35:14;;;;;;;3.47;2.53;;;20.20;66.20;;;22.85;49.48;101819.72;5094995;28;20199;-59
2022/07/24 06:37:42;;;;;;;5.20;2.80;;;20.30;66.20;;;22.90;49.43;101820.69;5095042;28;20222;-58
2022/07/24 06:40:15;;;;;;;2.63;2.43;;;20.30;65.90;;;22.96;49.02;101824.34;5094936;28;20192;-60
2022/07/24 06:42:42;;;;;;;4.97;2.70;;;20.40;65.60;;;23.07;48.99;101820.03;5094522;28;20201;-57
2022/07/24 06:45:10;;;;;;;2.60;2.40;;;20.50;65.60;;;23.22;48.93;101823.09;5094577;28;20207;-61
2022/07/24 06:47:38;;;;;;;3.93;2.90;;;20.60;65.50;;;23.34;48.77;101822.06;5094962;28;20231;-58
2022/07/24 06:50:09;;;;;;;2.37;2.20;;;20.70;65.40;;;23.34;48.70;101821.25;5095939;28;20699;-59
2022/07/24 06:52:37;;;;;;;3.10;2.83;;;20.80;65.20;;;23.44;48.66;101826.88;5094779;28;20222;-56
2022/07/24 06:55:06;;;;;;;3.93;2.37;;;20.80;64.90;;;23.59;48.26;101819.19;5094781;28;20216;-58
2022/07/24 06:57:34;;;;;;;2.53;2.33;;;21.00;65.00;;;23.79;48.00;101808.91;5094858;28;20247;-59
2022/07/24 07:00:01;;;;;;;2.80;2.20;;;21.10;64.80;;;23.92;47.70;101808.66;5094590;28;20207;-58
2022/07/24 07:02:29;;;;;;;3.00;2.10;;;21.20;64.30;;;24.04;47.40;101812.13;5094049;28;20234;-58
2022/07/24 07:04:57;;;;;;;2.63;2.10;;;21.30;63.90;;;24.11;47.28;101802.09;5095934;28;20195;-59
2022/07/24 07:07:26;;;;;;;2.50;2.30;;;21.40;63.40;;;24.21;46.78;101794.22;5094700;28;20204;-60
2022/07/24 07:09:53;;;;;;;2.57;2.00;;;21.50;63.00;;;24.23;47.13;101794.81;5094921;28;20192;-59
2022/07/24 07:12:20;;;;;;;2.53;1.80;;;21.60;62.90;;;24.40;46.61;101789.47;5093709;28;20265;-58
2022/07/24 07:14:48;;;;;;;3.50;2.67;;;21.70;63.10;;;24.58;46.76;101793.88;5094011;28;20195;-59
2022/07/24 07:17:15;;;;;;;2.53;2.23;;;21.80;62.80;;;24.71;46.25;101796.25;5094284;28;20188;-59
2022/07/24 07:19:43;;;;;;;5.53;2.07;;;22.00;62.60;;;24.91;46.41;101796.66;5094335;28;20275;-60
2022/07/24 07:22:11;;;;;;;3.13;2.10;;;22.10;62.50;;;25.01;45.49;101791.41;5105425;28;20299;-58
2022/07/24 07:24:39;;;;;;;2.27;1.80;;;22.20;61.30;;;25.13;45.47;101789.47;5114863;28;20195;-59
2022/07/24 07:27:12;;;;;;;1.93;1.77;;;22.40;61.60;;;25.32;45.06;101785.47;5114301;28;20598;-57
2022/07/24 07:29:40;;;;;;;1.60;1.50;;;22.50;61.70;;;25.54;45.65;101786.38;5114344;28;20204;-60
2022/07/24 07:32:07;;;;;;;2.30;1.70;;;22.70;61.80;;;25.77;44.87;101784.53;5113961;28;20571;-59
2022/07/24 07:34:34;;;;;;;2.07;1.87;;;22.80;61.00;;;25.92;44.58;101785.53;5114433;28;20199;-60
2022/07/24 07:37:02;;;;;;;1.70;1.60;;;23.00;60.60;;;26.08;43.98;101786.53;5115377;28;20188;-60
2022/07/24 07:39:29;;;;;;;2.60;2.07;;;23.20;59.90;;;26.10;43.23;101781.72;5095930;28;20210;-60
2022/07/24 07:41:58;;;;;;;2.23;1.80;;;23.30;58.40;;;26.18;42.69;101775.91;5093639;28;20217;-60
2022/07/24 07:44:25;;;;;;;1.90;1.80;;;23.40;58.00;;;26.30;42.55;101784.69;5093519;28;20189;-60
2022/07/24 07:46:53;;;;;;;2.40;1.80;;;23.50;57.60;;;26.34;42.63;101780.41;5093246;28;20191;-59
2022/07/24 07:49:20;;;;;;;2.20;1.70;;;23.70;57.60;;;26.45;42.19;101787.56;5093206;28;20263;-60
2022/07/24 07:51:51;;;;;;;2.80;1.83;;;23.80;57.10;;;26.59;41.70;101777.97;5093154;28;20243;-59
2022/07/24 07:54:18;;;;;;;1.87;1.77;;;23.90;57.00;;;26.70;41.44;101779.69;5094525;28;20276;-59
2022/07/24 07:56:46;;;;;;;2.00;1.80;;;24.00;56.30;;;26.78;41.29;101776.56;5092558;28;20196;-60
2022/07/24 07:59:15;;;;;;;2.30;2.20;;;24.10;56.10;;;26.82;41.27;101772.28;5093518;28;20184;-59
2022/07/24 08:01:42;;;;;;;2.30;2.20;;;24.20;55.60;;;26.88;41.04;101772.31;5093152;28;20208;-61
2022/07/24 08:04:10;;;;;;;2.63;2.10;;;24.30;55.60;;;27.07;41.12;101773.56;5093427;28;20201;-59
2022/07/24 08:06:37;;;;;;;2.00;1.90;;;24.40;55.70;;;27.33;40.27;101780.78;5093366;28;20188;-58
2022/07/24 08:09:05;;;;;;;2.10;1.80;;;24.60;55.40;;;27.74;40.12;101779.97;5093394;28;20267;-60
2022/07/24 08:11:33;;;;;;;2.40;2.20;;;24.80;55.20;;;28.39;38.70;101770.50;5101623;28;20211;-58
2022/07/24 08:14:01;;;;;;;2.10;2.00;;;25.00;54.60;;;29.12;37.23;101767.34;5113346;28;20184;-60
2022/07/24 08:16:29;;;;;;;2.60;2.40;;;25.40;53.70;;;30.04;36.03;101766.91;5113564;28;20199;-59
2022/07/24 08:18:57;;;;;;;2.43;2.10;;;25.90;53.00;;;31.08;34.81;101770.31;5113364;28;20637;-60
2022/07/24 08:21:24;;;;;;;4.70;2.50;;;26.40;52.00;;;32.15;33.32;101768.06;5112830;28;20230;-60
2022/07/24 08:23:52;;;;;;;2.30;2.20;;;27.10;51.30;;;33.09;31.01;101764.97;5113430;28;20587;-60
2022/07/24 08:26:19;;;;;;;2.77;2.40;;;27.70;48.90;;;33.96;30.81;101773.16;5113810;28;20633;-59
2022/07/24 08:28:46;;;;;;;3.13;2.33;;;28.50;48.30;;;34.70;28.89;101769.88;5111278;28;20218;-60
2022/07/24 08:31:14;;;;;;;3.50;2.50;;;29.20;46.20;;;35.32;27.97;101775.41;5112865;28;20215;-60
2022/07/24 08:33:43;;;;;;;3.17;2.93;;;29.80;44.70;;;35.83;27.03;101781.09;5113373;28;20551;-60
2022/07/24 08:36:10;;;;;;;3.80;3.10;;;30.30;41.40;;;36.03;25.05;101771.50;5113452;28;20218;-60
2022/07/24 08:38:37;;;;;;;3.40;3.20;;;30.80;39.70;;;36.40;25.31;101775.56;5113309;28;20616;-61
2022/07/24 08:41:07;;;;;;;3.93;3.53;;;31.20;38.50;;;36.62;25.04;101775.41;5112471;28;20184;-60
2022/07/24 08:43:34;;;;;;;3.53;3.17;;;31.60;38.00;;;36.76;25.24;101770.56;5110952;28;20271;-60
2022/07/24 08:46:06;;;;;;;4.28;3.88;;;31.90;36.90;;;37.15;24.38;101773.09;5112768;28;20644;-61
2022/07/24 08:48:42;;;;;;;4.28;3.65;;;32.20;36.40;;;37.27;23.27;101775.97;5113133;28;20566;-61
2022/07/24 08:51:14;;;;;;;4.18;3.88;;;32.30;34.30;;;37.23;23.83;101768.69;5112690;28;20180;-60
2022/07/24 08:53:43;;;;;;;6.95;3.75;;;32.50;34.20;;;37.55;23.69;101759.84;5117345;28;20210;-59
2022/07/24 08:56:11;;;;;;;4.20;3.80;;;32.70;34.60;;;37.91;23.04;101762.09;5116999;28;20192;-60
2022/07/24 08:58:40;;;;;;;4.30;3.90;;;33.00;33.90;;;38.18;22.88;101753.31;5116929;28;20195;-61
2022/07/24 09:01:08;;;;;;;3.95;3.65;;;33.10;33.10;;;38.48;22.27;101754.88;5114751;28;20494;-60
2022/07/24 09:03:44;;;;;;;4.32;3.95;;;33.40;32.60;;;38.56;21.77;101745.72;5117077;28;20202;-60
2022/07/24 09:06:14;;;;;;;4.13;3.83;;;33.50;31.70;;;38.50;21.89;101755.34;5115479;28;20650;-61
2022/07/24 09:08:57;;;;;;;4.45;4.05;;;33.60;31.70;;;38.17;22.47;101753.66;5116429;27;20663;-60
2022/07/24 09:11:24;;;;;;;4.10;3.80;;;33.50;31.70;;;37.96;22.68;101745.41;5116028;28;20589;-61
2022/07/24 09:16:38;;;;;;;3.13;2.92;;;33.60;32.10;;;38.87;22.78;101755.50;5116936;28;20188;-60
2022/07/24 09:19:09;;;;;;;5.35;4.82;;;33.80;33.00;;;39.07;20.55;101757.38;5114765;28;20269;-59
2022/07/24 09:21:42;;;;;;;5.60;3.75;;;33.80;30.10;;;39.14;21.25;101744.63;5116752;28;20204;-61
2022/07/24 09:24:14;;;;;;;3.45;3.22;;;34.10;30.90;;;39.89;21.16;101745.91;5116449;28;20191;-59
2022/07/24 09:26:48;;;;;;;4.28;3.88;;;34.40;31.20;;;40.73;20.66;101733.00;5117076;28;20191;-60
2022/07/24 09:29:19;;;;;;;4.93;3.70;;;34.80;30.90;;;41.56;19.24;101731.94;5115245;28;20215;-58
2022/07/24 09:31:52;;;;;;;4.45;3.95;;;35.20;29.60;;;41.60;18.78;101732.84;5116264;28;20690;-59
2022/07/24 09:34:19;;;;;;;4.15;3.30;;;35.50;28.80;;;41.92;18.82;101739.91;5114431;28;20553;-59
2022/07/24 09:37:03;;;;;;;4.45;4.05;;;35.90;29.10;;;42.04;18.60;101737.00;5115754;28;20203;-60
2022/07/24 09:39:33;;;;;;;3.70;3.50;;;36.10;28.10;;;41.97;18.36;101742.41;5116649;28;20196;-60
2022/07/24 09:42:03;;;;;;;4.68;4.28;;;36.40;28.10;;;41.84;18.75;101738.97;5115745;28;20216;-59
2022/07/24 09:44:32;;;;;;;4.20;3.80;;;36.40;27.80;;;41.14;18.54;101732.53;5116515;27;20731;-60
2022/07/24 09:47:02;;;;;;;5.10;4.60;;;36.20;27.30;;;40.59;19.07;101738.13;5115948;28;20188;-58
2022/07/24 09:49:31;;;;;;;4.55;4.15;;;36.10;27.60;;;40.49;19.32;101728.41;5116177;28;20238;-59
2022/07/24 09:52:15;;;;;;;4.28;3.97;;;35.90;28.00;;;40.80;19.59;101733.19;5114025;28;20216;-59
2022/07/24 09:54:46;;;;;;;4.13;3.83;;;35.90;27.90;;;41.16;19.22;101740.44;5115605;27;20192;-59
2022/07/24 09:57:24;;;;;;;3.78;3.47;;;35.90;28.60;;;41.42;18.87;101731.63;5116144;28;20196;-60
2022/07/24 09:59:54;;;;;;;5.43;4.35;;;36.00;28.30;;;41.85;18.56;101723.16;5101588;28;20192;-58
2022/07/24 10:02:27;;;;;;;4.70;4.25;;;36.20;28.30;;;41.62;18.73;101730.53;5096269;28;20209;-57
2022/07/24 10:04:56;;;;;;;4.82;4.40;;;36.10;27.50;;;41.46;18.77;101715.94;5095584;28;20192;-60
2022/07/24 10:07:27;;;;;;;4.30;3.90;;;36.20;27.60;;;41.33;18.63;101719.94;5096308;28;20181;-60
2022/07/24 10:09:58;;;;;;;5.32;4.80;;;36.20;27.90;;;41.81;18.41;101716.75;5094925;28;20637;-60
2022/07/24 10:12:29;;;;;;;5.22;4.82;;;36.30;27.90;;;41.70;18.55;101716.50;5106148;28;20208;-59
2022/07/24 10:15:00;;;;;;;5.78;5.25;;;36.30;27.60;;;41.48;18.74;101713.59;5115276;28;20206;-60
2022/07/24 10:17:58;;;;;;;4.18;3.78;;;36.30;27.60;;;41.29;18.99;101705.25;5115661;28;20192;-59
2022/07/24 10:20:39;;;;;;;4.90;4.40;;;36.30;28.00;;;41.76;18.72;101703.19;5113745;28;20302;-58
2022/07/24 10:23:25;;;;;;;4.93;4.53;;;36.40;28.10;;;42.11;18.27;101692.88;5113413;28;20249;-59